Aviation Digital Data Service (ADDS)

Output produced by METARs form (1041 UTC 19 January 2019)
found at http://www.aviationweather.gov/metar/data/
 
EPZG 191030Z 21004KT CAVOK 00/M02 Q1021
TAF EPZG 190830Z 1909/1918 22005KT 9999 SCT020
       
EPKK 191030Z 20003KT 180V260 CAVOK M01/M06 Q1021
TAF EPKK 190830Z 1909/2009 VRB02KT CAVOK 
     BECMG 1918/1921 4000 BR BKN015 
     PROB30 
     TEMPO 1921/2007 1200 BR BKN007
       
TAF COR EPDE 190810Z 1909/1918 23006KT 8000 BKN012 BKN018
       
EPSC 191030Z 30005KT 270V350 4400 BR SCT004 OVC005 M01/M02 Q1021
TAF AMD EPSC 190957Z 1909/2006 28004KT 6000 SCT003 OVC005 
     BECMG 1910/1912 SCT015 
     TEMPO 1915/2006 1500 BR BKN003
       
EPRZ 191030Z 24006KT 210V270 CAVOK M01/M05 Q1022 R27/42//95
TAF EPRZ 190530Z 1906/2006 24004KT CAVOK 
     BECMG 1918/1921 07010KT 
     PROB40 
     TEMPO 1923/2006 3000 BR
       
TAF EPKS 190800Z 1909/1918 22006KT 9999 BKN020
       
EPPO 191030Z 26005KT 9999 FEW020 00/M03 Q1021 R10/19//95
TAF EPPO 190530Z 1906/2006 26005KT 9999 BKN020 
     TEMPO 1906/1909 BKN012 
     BECMG 1918/1921 4000 BR
       
EPLL 191030Z 25009KT 9999 BKN014 OVC016 M02/M05 Q1021
TAF EPLL 190530Z 1906/2006 22005KT 9999 BKN012 
     PROB40 1906/1909 BKN008 
     BECMG 1908/1911 SCT020 
     PROB40 
     TEMPO 1921/2006 3000 BR
       
EPWA 191030Z 24005KT 9999 SCT017 SCT032 00/M04 Q1021 NOSIG
TAF EPWA 190830Z 1909/2009 23005KT 9999 BKN025 
     PROB40 2001/2008 3000 BR
       
EPKT 191030Z 22006KT 6000 NSC M02/M06 Q1021
TAF EPKT 190530Z 1906/2006 17004KT 3000 BR NSC 
     BECMG 1906/1909 CAVOK 
     TEMPO 1920/2006 4000 BR 
     PROB30 
     TEMPO 2000/2006 1500 BR BKN007
       
EPGD 191030Z 25008KT 9999 BKN009 M00/M02 Q1018 R11/290095
TAF AMD EPGD 190637Z 1906/2006 23010KT 9999 SCT020 
     PROB40 1906/1909 BKN005 
     TEMPO 1906/1920 4000 SHSN BKN005 BKN012TCU
       
EPWR 191030Z 31004KT 240V330 9999 SCT020 00/M04 Q1022
TAF EPWR 190830Z 1909/2009 25005KT 9999 SCT025 
     BECMG 1915/1918 11010KT 
     BECMG 1921/1924 3000 BR 
     PROB30 
     TEMPO 2000/2006 1200 BR
       
TAF AMD EPSN 190837Z 1909/1918 24008KT 4000 BR BKN005 
     PROB40 
     TEMPO 1909/1911 2000 SN 
     BECMG 1910/1912 9999 BKN014 
     TEMPO 1915/1918 5000 BR BKN003
       
EPBY 191030Z 25007KT 220V290 9999 FEW009 OVC011 M01/M03 Q1020
TAF AMD EPBY 191007Z 1910/2006 25009KT 9999 BKN011 
     BECMG 1910/1912 SCT020 
     TEMPO 1910/1920 4000 SHSN BKN005 BKN012TCU
       
EPSY 191030Z 24007KT 210V280 9999 OVC011 M01/M04 Q1019
TAF EPSY 190830Z 1909/1918 25008KT 9999 BKN013